sensor_id;sensor_type;location;lat;lon;timestamp;pressure;altitude;pressure_sealevel;temperature
76583;BMP280;65462;52.148;7.940;2023-03-02T00:01:14;101691.53;;;1.55
76583;BMP280;65462;52.148;7.940;2023-03-02T00:03:40;101693.88;;;1.56
76583;BMP280;65462;52.148;7.940;2023-03-02T00:06:06;101683.56;;;1.50
76583;BMP280;65462;52.148;7.940;2023-03-02T00:08:32;101692.75;;;1.52
76583;BMP280;65462;52.148;7.940;2023-03-02T00:10:57;101697.94;;;1.52
76583;BMP280;65462;52.148;7.940;2023-03-02T00:13:24;101689.34;;;1.52
76583;BMP280;65462;52.148;7.940;2023-03-02T00:15:50;101688.34;;;1.53
76583;BMP280;65462;52.148;7.940;2023-03-02T00:18:15;101684.13;;;1.52
76583;BMP280;65462;52.148;7.940;2023-03-02T00:20:40;101688.94;;;1.55
76583;BMP280;65462;52.148;7.940;2023-03-02T00:23:06;101690.59;;;1.49
76583;BMP280;65462;52.148;7.940;2023-03-02T00:25:31;101697.59;;;1.49
76583;BMP280;65462;52.148;7.940;2023-03-02T00:27:56;101697.28;;;1.45
76583;BMP280;65462;52.148;7.940;2023-03-02T00:30:22;101686.19;;;1.38
76583;BMP280;65462;52.148;7.940;2023-03-02T00:32:47;101697.16;;;1.40
76583;BMP280;65462;52.148;7.940;2023-03-02T00:35:12;101692.19;;;1.39
76583;BMP280;65462;52.148;7.940;2023-03-02T00:37:38;101688.44;;;1.35
76583;BMP280;65462;52.148;7.940;2023-03-02T00:40:04;101685.16;;;1.39
76583;BMP280;65462;52.148;7.940;2023-03-02T00:42:31;101683.78;;;1.37
76583;BMP280;65462;52.148;7.940;2023-03-02T00:44:56;101679.03;;;1.34
76583;BMP280;65462;52.148;7.940;2023-03-02T00:47:26;101680.84;;;1.33
76583;BMP280;65462;52.148;7.940;2023-03-02T00:49:51;101680.38;;;1.36
76583;BMP280;65462;52.148;7.940;2023-03-02T00:52:16;101679.31;;;1.32
76583;BMP280;65462;52.148;7.940;2023-03-02T00:54:42;101679.75;;;1.29
76583;BMP280;65462;52.148;7.940;2023-03-02T00:57:08;101689.91;;;1.31
76583;BMP280;65462;52.148;7.940;2023-03-02T00:59:36;101689.91;;;1.31
76583;BMP280;65462;52.148;7.940;2023-03-02T01:02:01;101684.50;;;1.32
76583;BMP280;65462;52.148;7.940;2023-03-02T01:04:30;101680.84;;;1.33
76583;BMP280;65462;52.148;7.940;2023-03-02T01:07:01;101679.03;;;1.34
76583;BMP280;65462;52.148;7.940;2023-03-02T01:09:28;101684.94;;;1.29
76583;BMP280;65462;52.148;7.940;2023-03-02T01:11:53;101681.09;;;1.32
76583;BMP280;65462;52.148;7.940;2023-03-02T01:14:19;101687.13;;;1.32
76583;BMP280;65462;52.148;7.940;2023-03-02T01:16:44;101686.84;;;1.34
76583;BMP280;65462;52.148;7.940;2023-03-02T01:19:12;101674.97;;;1.26
76583;BMP280;65462;52.148;7.940;2023-03-02T01:21:37;101673.97;;;1.27
76583;BMP280;65462;52.148;7.940;2023-03-02T01:24:02;101676.22;;;1.24
76583;BMP280;65462;52.148;7.940;2023-03-02T01:26:28;101671.69;;;1.19
76583;BMP280;65462;52.148;7.940;2023-03-02T01:28:53;101672.47;;;1.20
76583;BMP280;65462;52.148;7.940;2023-03-02T01:31:23;101669.66;;;1.21
76583;BMP280;65462;52.148;7.940;2023-03-02T01:33:49;101667.59;;;1.23
76583;BMP280;65462;52.148;7.940;2023-03-02T01:36:14;101674.06;;;1.21
76583;BMP280;65462;52.148;7.940;2023-03-02T01:38:39;101663.19;;;1.24
76583;BMP280;65462;52.148;7.940;2023-03-02T01:41:05;101666.03;;;1.22
76583;BMP280;65462;52.148;7.940;2023-03-02T01:43:30;101667.50;;;1.18
76583;BMP280;65462;52.148;7.940;2023-03-02T01:45:58;101662.84;;;1.20
76583;BMP280;65462;52.148;7.940;2023-03-02T01:48:28;101657.97;;;1.12
76583;BMP280;65462;52.148;7.940;2023-03-02T01:50:56;101682.19;;;1.13
76583;BMP280;65462;52.148;7.940;2023-03-02T01:53:24;101667.59;;;1.12
76583;BMP280;65462;52.148;7.940;2023-03-02T01:55:51;101664.88;;;1.06
76583;BMP280;65462;52.148;7.940;2023-03-02T01:58:16;101655.47;;;1.05
76583;BMP280;65462;52.148;7.940;2023-03-02T02:00:42;101658.63;;;1.07
76583;BMP280;65462;52.148;7.940;2023-03-02T02:03:12;101664.28;;;1.04
76583;BMP280;65462;52.148;7.940;2023-03-02T02:05:42;101656.63;;;1.10
76583;BMP280;65462;52.148;7.940;2023-03-02T02:08:08;101660.44;;;1.07
76583;BMP280;65462;52.148;7.940;2023-03-02T02:10:34;101654.88;;;1.03
76583;BMP280;65462;52.148;7.940;2023-03-02T02:12:59;101649.13;;;1.01
76583;BMP280;65462;52.148;7.940;2023-03-02T02:15:26;101649.38;;;1.00
76583;BMP280;65462;52.148;7.940;2023-03-02T02:17:51;101641.22;;;0.96
76583;BMP280;65462;52.148;7.940;2023-03-02T02:28:21;101634.03;;;0.80
76583;BMP280;65462;52.148;7.940;2023-03-02T02:31:01;101630.06;;;0.78
76583;BMP280;65462;52.148;7.940;2023-03-02T02:33:28;101633.44;;;0.78
76583;BMP280;65462;52.148;7.940;2023-03-02T02:36:02;101629.84;;;0.79
76583;BMP280;65462;52.148;7.940;2023-03-02T02:38:29;101618.28;;;0.75
76583;BMP280;65462;52.148;7.940;2023-03-02T02:40:57;101617.66;;;0.80
76583;BMP280;65462;52.148;7.940;2023-03-02T02:43:23;101621.84;;;0.81
76583;BMP280;65462;52.148;7.940;2023-03-02T02:45:51;101618.00;;;0.83
76583;BMP280;65462;52.148;7.940;2023-03-02T02:48:20;101614.25;;;0.79
76583;BMP280;65462;52.148;7.940;2023-03-02T02:50:47;101611.84;;;0.78
76583;BMP280;65462;52.148;7.940;2023-03-02T02:53:23;101614.25;;;0.79
76583;BMP280;65462;52.148;7.940;2023-03-02T02:55:52;101615.25;;;0.78
76583;BMP280;65462;52.148;7.940;2023-03-02T02:58:33;101631.53;;;0.74
76583;BMP280;65462;52.148;7.940;2023-03-02T03:01:00;101611.19;;;0.71
76583;BMP280;65462;52.148;7.940;2023-03-02T03:03:31;101633.25;;;0.80
76583;BMP280;65462;52.148;7.940;2023-03-02T03:06:01;101618.66;;;0.79
76583;BMP280;65462;52.148;7.940;2023-03-02T03:11:15;101615.13;;;0.73
76583;BMP280;65462;52.148;7.940;2023-03-02T03:13:45;101617.94;;;0.72
76583;BMP280;65462;52.148;7.940;2023-03-02T03:16:14;101633.34;;;0.73
76583;BMP280;65462;52.148;7.940;2023-03-02T03:18:44;101618.53;;;0.74
76583;BMP280;65462;52.148;7.940;2023-03-02T03:21:11;101614.47;;;0.78
76583;BMP280;65462;52.148;7.940;2023-03-02T03:23:36;101608.34;;;0.72
76583;BMP280;65462;52.148;7.940;2023-03-02T03:26:04;101615.13;;;0.73
76583;BMP280;65462;52.148;7.940;2023-03-02T03:28:30;101609.13;;;0.73
76583;BMP280;65462;52.148;7.940;2023-03-02T03:30:56;101594.44;;;0.67
76583;BMP280;65462;52.148;7.940;2023-03-02T03:33:21;101604.94;;;0.72
76583;BMP280;65462;52.148;7.940;2023-03-02T03:35:47;101609.34;;;0.71
76583;BMP280;65462;52.148;7.940;2023-03-02T03:38:12;101604.38;;;0.70
76583;BMP280;65462;52.148;7.940;2023-03-02T03:40:37;101613.44;;;0.67
76583;BMP280;65462;52.148;7.940;2023-03-02T03:43:03;101616.03;;;0.67
76583;BMP280;65462;52.148;7.940;2023-03-02T03:45:28;101619.28;;;0.63
76583;BMP280;65462;52.148;7.940;2023-03-02T03:47:55;101614.31;;;0.61
76583;BMP280;65462;52.148;7.940;2023-03-02T03:50:20;101613.16;;;0.57
76583;BMP280;65462;52.148;7.940;2023-03-02T03:52:46;101609.75;;;0.57
76583;BMP280;65462;52.148;7.940;2023-03-02T03:55:11;101606.59;;;0.54
76583;BMP280;65462;52.148;7.940;2023-03-02T03:57:37;101615.41;;;0.53
76583;BMP280;65462;52.148;7.940;2023-03-02T04:00:07;101610.56;;;0.57
76583;BMP280;65462;52.148;7.940;2023-03-02T04:02:35;101614.97;;;0.57
76583;BMP280;65462;52.148;7.940;2023-03-02T04:05:01;101609.66;;;0.51
76583;BMP280;65462;52.148;7.940;2023-03-02T04:07:35;101612.44;;;0.50
76583;BMP280;65462;52.148;7.940;2023-03-02T04:10:01;101611.44;;;0.51
76583;BMP280;65462;52.148;7.940;2023-03-02T04:12:31;101611.88;;;0.48
76583;BMP280;65462;52.148;7.940;2023-03-02T04:14:56;101615.94;;;0.44
76583;BMP280;65462;52.148;7.940;2023-03-02T04:17:22;101621.94;;;0.44
76583;BMP280;65462;52.148;7.940;2023-03-02T04:19:47;101617.53;;;0.45
76583;BMP280;65462;52.148;7.940;2023-03-02T04:22:13;101612.78;;;0.42
76583;BMP280;65462;52.148;7.940;2023-03-02T04:24:39;101607.97;;;0.39
76583;BMP280;65462;52.148;7.940;2023-03-02T04:27:04;101607.97;;;0.39
76583;BMP280;65462;52.148;7.940;2023-03-02T04:29:30;101612.19;;;0.40
76583;BMP280;65462;52.148;7.940;2023-03-02T04:31:56;101611.38;;;0.39
76583;BMP280;65462;52.148;7.940;2023-03-02T04:34:22;101620.66;;;0.35
76583;BMP280;65462;52.148;7.940;2023-03-02T04:36:50;101615.66;;;0.34
76583;BMP280;65462;52.148;7.940;2023-03-02T04:39:17;101612.06;;;0.35
76583;BMP280;65462;52.148;7.940;2023-03-02T04:41:43;101613.53;;;0.31
76583;BMP280;65462;52.148;7.940;2023-03-02T04:44:09;101619.06;;;0.34
76583;BMP280;65462;52.148;7.940;2023-03-02T04:46:35;101603.78;;;0.26
76583;BMP280;65462;52.148;7.940;2023-03-02T04:49:00;101610.22;;;0.24
76583;BMP280;65462;52.148;7.940;2023-03-02T04:51:28;101624.63;;;0.20
76583;BMP280;65462;52.148;7.940;2023-03-02T04:53:56;101611.88;;;0.18
76583;BMP280;65462;52.148;7.940;2023-03-02T04:56:21;101608.56;;;0.11
76583;BMP280;65462;52.148;7.940;2023-03-02T04:58:47;101605.91;;;0.18
76583;BMP280;65462;52.148;7.940;2023-03-02T05:01:13;101610.53;;;0.16
76583;BMP280;65462;52.148;7.940;2023-03-02T05:03:40;101604.28;;;0.17
76583;BMP280;65462;52.148;7.940;2023-03-02T05:06:06;101601.94;;;0.15
76583;BMP280;65462;52.148;7.940;2023-03-02T05:08:31;101595.94;;;0.15
76583;BMP280;65462;52.148;7.940;2023-03-02T05:10:57;101600.13;;;0.16
76583;BMP280;65462;52.148;7.940;2023-03-02T05:13:23;101593.91;;;0.17
76583;BMP280;65462;52.148;7.940;2023-03-02T05:15:49;101589.59;;;0.11
76583;BMP280;65462;52.148;7.940;2023-03-02T05:18:16;101596.81;;;0.09
76583;BMP280;65462;52.148;7.940;2023-03-02T05:20:41;101588.94;;;-0.03
76583;BMP280;65462;52.148;7.940;2023-03-02T05:23:07;101604.44;;;0.04
76583;BMP280;65462;52.148;7.940;2023-03-02T05:25:35;101593.84;;;0.05
76583;BMP280;65462;52.148;7.940;2023-03-02T05:28:00;101587.94;;;-0.02
76583;BMP280;65462;52.148;7.940;2023-03-02T05:30:27;101599.41;;;-0.10
76583;BMP280;65462;52.148;7.940;2023-03-02T05:32:52;101586.84;;;-0.13
76583;BMP280;65462;52.148;7.940;2023-03-02T05:35:21;101588.63;;;-0.07
76583;BMP280;65462;52.148;7.940;2023-03-02T05:37:47;101608.34;;;-0.06
76583;BMP280;65462;52.148;7.940;2023-03-02T05:40:14;101586.00;;;-0.07
76583;BMP280;65462;52.148;7.940;2023-03-02T05:42:41;101591.41;;;-0.08
76583;BMP280;65462;52.148;7.940;2023-03-02T05:45:08;101607.72;;;-0.01
76583;BMP280;65462;52.148;7.940;2023-03-02T05:47:36;101588.09;;;0.03
76583;BMP280;65462;52.148;7.940;2023-03-02T05:50:02;101597.88;;;0.01
76583;BMP280;65462;52.148;7.940;2023-03-02T05:52:27;101598.31;;;-0.02
76583;BMP280;65462;52.148;7.940;2023-03-02T05:54:52;101595.81;;;-0.09
76583;BMP280;65462;52.148;7.940;2023-03-02T05:57:18;101605.41;;;-0.09
76583;BMP280;65462;52.148;7.940;2023-03-02T05:59:43;101597.03;;;-0.11
76583;BMP280;65462;52.148;7.940;2023-03-02T06:02:11;101597.66;;;-0.16
76583;BMP280;65462;52.148;7.940;2023-03-02T06:04:36;101605.03;;;-0.13
76583;BMP280;65462;52.148;7.940;2023-03-02T06:07:11;101621.19;;;-0.11
76583;BMP280;65462;52.148;7.940;2023-03-02T06:09:40;101610.81;;;-0.11
76583;BMP280;65462;52.148;7.940;2023-03-02T06:12:06;101610.22;;;-0.13
76583;BMP280;65462;52.148;7.940;2023-03-02T06:14:32;101603.91;;;-0.17
76583;BMP280;65462;52.148;7.940;2023-03-02T06:16:58;101610.66;;;-0.16
76583;BMP280;65462;52.148;7.940;2023-03-02T06:19:23;101609.09;;;-0.17
76583;BMP280;65462;52.148;7.940;2023-03-02T06:21:48;101618.06;;;-0.19
76583;BMP280;65462;52.148;7.940;2023-03-02T06:24:14;101612.13;;;-0.20
76583;BMP280;65462;52.148;7.940;2023-03-02T06:26:39;101624.50;;;-0.22
76583;BMP280;65462;52.148;7.940;2023-03-02T06:29:05;101624.06;;;-0.19
76583;BMP280;65462;52.148;7.940;2023-03-02T06:31:31;101624.22;;;-0.14
76583;BMP280;65462;52.148;7.940;2023-03-02T06:33:57;101629.50;;;-0.20
76583;BMP280;65462;52.148;7.940;2023-03-02T06:36:22;101628.69;;;-0.21
76583;BMP280;65462;52.148;7.940;2023-03-02T06:38:47;101631.72;;;-0.24
76583;BMP280;65462;52.148;7.940;2023-03-02T06:41:13;101628.53;;;-0.26
76583;BMP280;65462;52.148;7.940;2023-03-02T06:43:38;101629.56;;;-0.27
76583;BMP280;65462;52.148;7.940;2023-03-02T06:46:03;101634.94;;;-0.28
76583;BMP280;65462;52.148;7.940;2023-03-02T06:48:29;101626.34;;;-0.29
76583;BMP280;65462;52.148;7.940;2023-03-02T06:50:54;101629.13;;;-0.24
76583;BMP280;65462;52.148;7.940;2023-03-02T06:53:19;101632.50;;;-0.23
76583;BMP280;65462;52.148;7.940;2023-03-02T06:55:47;101639.50;;;-0.24
76583;BMP280;65462;52.148;7.940;2023-03-02T06:58:12;101640.06;;;-0.22
76583;BMP280;65462;52.148;7.940;2023-03-02T07:00:38;101631.50;;;-0.22
76583;BMP280;65462;52.148;7.940;2023-03-02T07:03:03;101636.47;;;-0.21
76583;BMP280;65462;52.148;7.940;2023-03-02T07:05:29;101642.66;;;-0.22
76583;BMP280;65462;52.148;7.940;2023-03-02T07:07:57;101637.41;;;-0.15
76583;BMP280;65462;52.148;7.940;2023-03-02T07:10:22;101636.63;;;-0.16
76583;BMP280;65462;52.148;7.940;2023-03-02T07:12:47;101635.63;;;-0.15
76583;BMP280;65462;52.148;7.940;2023-03-02T07:15:13;101634.19;;;-0.11
76583;BMP280;65462;52.148;7.940;2023-03-02T07:17:40;101638.16;;;-0.08
76583;BMP280;65462;52.148;7.940;2023-03-02T07:20:06;101627.88;;;-0.03
76583;BMP280;65462;52.148;7.940;2023-03-02T07:22:32;101633.31;;;-0.05
76583;BMP280;65462;52.148;7.940;2023-03-02T07:24:57;101629.91;;;-0.05
76583;BMP280;65462;52.148;7.940;2023-03-02T07:27:23;101614.13;;;-0.04
76583;BMP280;65462;52.148;7.940;2023-03-02T07:29:48;101614.13;;;-0.04
76583;BMP280;65462;52.148;7.940;2023-03-02T07:32:13;101619.25;;;0.03
76583;BMP280;65462;52.148;7.940;2023-03-02T07:34:39;101623.44;;;0.04
76583;BMP280;65462;52.148;7.940;2023-03-02T07:37:04;101619.59;;;0.07
76583;BMP280;65462;52.148;7.940;2023-03-02T07:39:29;101614.41;;;0.07
76583;BMP280;65462;52.148;7.940;2023-03-02T07:42:01;101617.09;;;0.18
76583;BMP280;65462;52.148;7.940;2023-03-02T07:44:29;101623.06;;;0.19
76583;BMP280;65462;52.148;7.940;2023-03-02T07:46:55;101619.81;;;0.23
76583;BMP280;65462;52.148;7.940;2023-03-02T07:49:20;101622.75;;;0.27
76583;BMP280;65462;52.148;7.940;2023-03-02T07:51:46;101625.72;;;0.30
76583;BMP280;65462;52.148;7.940;2023-03-02T07:54:11;101618.81;;;0.36
76583;BMP280;65462;52.148;7.940;2023-03-02T07:56:36;101611.63;;;0.38
76583;BMP280;65462;52.148;7.940;2023-03-02T07:59:02;101614.13;;;0.44
76583;BMP280;65462;52.148;7.940;2023-03-02T08:01:27;101616.28;;;0.47
76583;BMP280;65462;52.148;7.940;2023-03-02T08:03:52;101619.81;;;0.53
76583;BMP280;65462;52.148;7.940;2023-03-02T08:06:18;101612.25;;;0.51
76583;BMP280;65462;52.148;7.940;2023-03-02T08:08:43;101614.59;;;0.53
76583;BMP280;65462;52.148;7.940;2023-03-02T08:11:14;101615.31;;;0.60
76583;BMP280;65462;52.148;7.940;2023-03-02T08:13:40;101621.78;;;0.69
76583;BMP280;65462;52.148;7.940;2023-03-02T08:16:07;101623.38;;;0.70
76583;BMP280;65462;52.148;7.940;2023-03-02T08:18:32;101622.94;;;0.73
76583;BMP280;65462;52.148;7.940;2023-03-02T08:20:58;101608.84;;;0.81
76583;BMP280;65462;52.148;7.940;2023-03-02T08:23:24;101605.56;;;0.85
76583;BMP280;65462;52.148;7.940;2023-03-02T08:25:53;101615.41;;;0.95
76583;BMP280;65462;52.148;7.940;2023-03-02T08:28:20;101610.66;;;1.03
76583;BMP280;65462;52.148;7.940;2023-03-02T08:30:56;101613.50;;;1.14
76583;BMP280;65462;52.148;7.940;2023-03-02T08:33:22;101615.00;;;1.21
76583;BMP280;65462;52.148;7.940;2023-03-02T08:36:07;101616.03;;;1.32
76583;BMP280;65462;52.148;7.940;2023-03-02T08:38:34;101623.72;;;1.38
76583;BMP280;65462;52.148;7.940;2023-03-02T08:41:07;101616.34;;;1.47
76583;BMP280;65462;52.148;7.940;2023-03-02T08:43:34;101611.38;;;1.57
76583;BMP280;65462;52.148;7.940;2023-03-02T08:46:00;101613.16;;;1.68
76583;BMP280;65462;52.148;7.940;2023-03-02T08:48:26;101608.63;;;1.75
76583;BMP280;65462;52.148;7.940;2023-03-02T08:51:03;101619.28;;;1.85
76583;BMP280;65462;52.148;7.940;2023-03-02T08:53:32;101621.72;;;1.92
76583;BMP280;65462;52.148;7.940;2023-03-02T08:55:57;101614.91;;;2.02
76583;BMP280;65462;52.148;7.940;2023-03-02T08:58:23;101618.28;;;2.14
76583;BMP280;65462;52.148;7.940;2023-03-02T09:00:48;101618.25;;;2.26
76583;BMP280;65462;52.148;7.940;2023-03-02T09:03:14;101609.22;;;2.34
76583;BMP280;65462;52.148;7.940;2023-03-02T09:05:39;101605.22;;;2.43
76583;BMP280;65462;52.148;7.940;2023-03-02T09:08:05;101605.88;;;2.50
76583;BMP280;65462;52.148;7.940;2023-03-02T09:10:31;101616.97;;;2.57
76583;BMP280;65462;52.148;7.940;2023-03-02T09:12:56;101611.59;;;2.63
76583;BMP280;65462;52.148;7.940;2023-03-02T09:15:22;101623.22;;;2.72
76583;BMP280;65462;52.148;7.940;2023-03-02T09:17:47;101619.50;;;2.85
76583;BMP280;65462;52.148;7.940;2023-03-02T09:20:12;101616.50;;;2.93
76583;BMP280;65462;52.148;7.940;2023-03-02T09:22:38;101617.91;;;3.01
76583;BMP280;65462;52.148;7.940;2023-03-02T09:25:05;101614.22;;;2.97
76583;BMP280;65462;52.148;7.940;2023-03-02T09:27:30;101607.78;;;3.04
76583;BMP280;65462;52.148;7.940;2023-03-02T09:29:56;101610.88;;;3.18
76583;BMP280;65462;52.148;7.940;2023-03-02T09:32:21;101616.47;;;3.26
76583;BMP280;65462;52.148;7.940;2023-03-02T09:34:47;101610.16;;;3.22
76583;BMP280;65462;52.148;7.940;2023-03-02T09:37:12;101605.47;;;3.24
76583;BMP280;65462;52.148;7.940;2023-03-02T09:39:38;101602.38;;;3.27
76583;BMP280;65462;52.148;7.940;2023-03-02T09:45:00;101604.75;;;3.46
76583;BMP280;65462;52.148;7.940;2023-03-02T09:47:35;101607.88;;;3.48
76583;BMP280;65462;52.148;7.940;2023-03-02T09:50:27;101612.16;;;3.54
76583;BMP280;65462;52.148;7.940;2023-03-02T09:53:10;101615.94;;;3.63
76583;BMP280;65462;52.148;7.940;2023-03-02T09:55:39;101611.06;;;3.71
76583;BMP280;65462;52.148;7.940;2023-03-02T09:58:07;101614.03;;;3.80
76583;BMP280;65462;52.148;7.940;2023-03-02T10:00:39;101613.63;;;3.88
76583;BMP280;65462;52.148;7.940;2023-03-02T10:03:13;101618.41;;;3.96
76583;BMP280;65462;52.148;7.940;2023-03-02T10:05:51;101619.75;;;3.99
76583;BMP280;65462;52.148;7.940;2023-03-02T10:08:27;101626.06;;;4.03
76583;BMP280;65462;52.148;7.940;2023-03-02T10:11:00;101622.50;;;4.14
76583;BMP280;65462;52.148;7.940;2023-03-02T10:14:08;101625.50;;;4.22
76583;BMP280;65462;52.148;7.940;2023-03-02T10:19:20;101631.97;;;4.41
76583;BMP280;65462;52.148;7.940;2023-03-02T10:21:48;101632.56;;;4.48
76583;BMP280;65462;52.148;7.940;2023-03-02T10:24:25;101638.59;;;4.54
76583;BMP280;65462;52.148;7.940;2023-03-02T10:26:58;101633.97;;;4.61
76583;BMP280;65462;52.148;7.940;2023-03-02T10:29:56;101632.47;;;4.70
76583;BMP280;65462;52.148;7.940;2023-03-02T10:32:37;101636.69;;;4.76
76583;BMP280;65462;52.148;7.940;2023-03-02T10:37:41;101617.06;;;4.79
76583;BMP280;65462;52.148;7.940;2023-03-02T10:40:35;101616.13;;;4.90
76583;BMP280;65462;52.148;7.940;2023-03-02T10:43:02;101628.44;;;4.94
76583;BMP280;65462;52.148;7.940;2023-03-02T10:45:30;101617.72;;;4.96
76583;BMP280;65462;52.148;7.940;2023-03-02T10:48:04;101621.97;;;5.02
76583;BMP280;65462;52.148;7.940;2023-03-02T10:50:30;101625.44;;;5.13
76583;BMP280;65462;52.148;7.940;2023-03-02T10:52:55;101622.03;;;5.17
76583;BMP280;65462;52.148;7.940;2023-03-02T10:55:21;101620.00;;;5.19
76583;BMP280;65462;52.148;7.940;2023-03-02T10:58:02;101613.38;;;5.12
76583;BMP280;65462;52.148;7.940;2023-03-02T11:00:30;101627.84;;;5.24
76583;BMP280;65462;52.148;7.940;2023-03-02T11:03:16;101626.81;;;5.25
76583;BMP280;65462;52.148;7.940;2023-03-02T11:05:43;101630.53;;;5.34
76583;BMP280;65462;52.148;7.940;2023-03-02T11:08:16;101619.81;;;5.41
76583;BMP280;65462;52.148;7.940;2023-03-02T11:10:58;101620.84;;;5.40
76583;BMP280;65462;52.148;7.940;2023-03-02T11:13:26;101617.19;;;5.41
76583;BMP280;65462;52.148;7.940;2023-03-02T11:18:57;101612.56;;;5.58
76583;BMP280;65462;52.148;7.940;2023-03-02T11:24:14;101617.88;;;5.68
76583;BMP280;65462;52.148;7.940;2023-03-02T11:26:49;101607.59;;;5.71
76583;BMP280;65462;52.148;7.940;2023-03-02T11:32:14;101615.78;;;5.85
76583;BMP280;65462;52.148;7.940;2023-03-02T11:37:22;101615.59;;;5.97
76583;BMP280;65462;52.148;7.940;2023-03-02T11:42:23;101609.56;;;6.11
76583;BMP280;65462;52.148;7.940;2023-03-02T11:44:49;101605.09;;;6.17
76583;BMP280;65462;52.148;7.940;2023-03-02T11:47:16;101606.16;;;6.21
76583;BMP280;65462;52.148;7.940;2023-03-02T11:49:53;101604.06;;;6.28
76583;BMP280;65462;52.148;7.940;2023-03-02T11:52:25;101589.91;;;6.34
76583;BMP280;65462;52.148;7.940;2023-03-02T11:54:59;101602.50;;;6.37
76583;BMP280;65462;52.148;7.940;2023-03-02T11:57:30;101596.72;;;6.45
76583;BMP280;65462;52.148;7.940;2023-03-02T11:59:57;101578.88;;;6.47
76583;BMP280;65462;52.148;7.940;2023-03-02T12:02:24;101579.13;;;6.51
76583;BMP280;65462;52.148;7.940;2023-03-02T12:05:00;101567.31;;;6.53
76583;BMP280;65462;52.148;7.940;2023-03-02T12:07:26;101581.72;;;6.56
76583;BMP280;65462;52.148;7.940;2023-03-02T12:14:50;101570.69;;;6.74
76583;BMP280;65462;52.148;7.940;2023-03-02T12:19:52;101564.09;;;6.91
76583;BMP280;65462;52.148;7.940;2023-03-02T12:22:30;101555.66;;;7.00
76583;BMP280;65462;52.148;7.940;2023-03-02T12:27:37;101547.94;;;7.18
76583;BMP280;65462;52.148;7.940;2023-03-02T12:30:10;101544.59;;;7.13
76583;BMP280;65462;52.148;7.940;2023-03-02T12:35:35;101536.13;;;7.21
76583;BMP280;65462;52.148;7.940;2023-03-02T12:38:22;101538.16;;;7.34
76583;BMP280;65462;52.148;7.940;2023-03-02T12:41:21;101527.06;;;7.47
76583;BMP280;65462;52.148;7.940;2023-03-02T12:44:32;101521.47;;;7.58
76583;BMP280;65462;52.148;7.940;2023-03-02T12:47:02;101514.31;;;7.64
76583;BMP280;65462;52.148;7.940;2023-03-02T12:50:04;101515.25;;;7.78
76583;BMP280;65462;52.148;7.940;2023-03-02T12:52:35;101519.34;;;7.94
76583;BMP280;65462;52.148;7.940;2023-03-02T12:55:05;101507.19;;;8.03
76583;BMP280;65462;52.148;7.940;2023-03-02T12:57:31;101508.94;;;8.13
76583;BMP280;65462;52.148;7.940;2023-03-02T12:59:59;101504.34;;;8.23
76583;BMP280;65462;52.148;7.940;2023-03-02T13:02:30;101500.22;;;8.41
76583;BMP280;65462;52.148;7.940;2023-03-02T13:05:06;101498.41;;;8.60
76583;BMP280;65462;52.148;7.940;2023-03-02T13:07:39;101500.88;;;8.75
76583;BMP280;65462;52.148;7.940;2023-03-02T13:10:21;101488.81;;;8.93
76583;BMP280;65462;52.148;7.940;2023-03-02T13:12:49;101490.16;;;9.09
76583;BMP280;65462;52.148;7.940;2023-03-02T13:15:16;101495.00;;;9.21
76583;BMP280;65462;52.148;7.940;2023-03-02T13:17:42;101491.75;;;9.29
76583;BMP280;65462;52.148;7.940;2023-03-02T13:20:12;101487.06;;;9.39
76583;BMP280;65462;52.148;7.940;2023-03-02T13:22:38;101477.72;;;9.47
76583;BMP280;65462;52.148;7.940;2023-03-02T13:25:06;101485.69;;;9.60
76583;BMP280;65462;52.148;7.940;2023-03-02T13:27:32;101479.75;;;9.69
76583;BMP280;65462;52.148;7.940;2023-03-02T13:30:21;101481.16;;;9.80
76583;BMP280;65462;52.148;7.940;2023-03-02T13:32:47;101476.59;;;9.85
76583;BMP280;65462;52.148;7.940;2023-03-02T13:35:22;101478.75;;;9.97
76583;BMP280;65462;52.148;7.940;2023-03-02T13:37:59;101466.34;;;10.11
76583;BMP280;65462;52.148;7.940;2023-03-02T13:42:54;101463.38;;;10.40
76583;BMP280;65462;52.148;7.940;2023-03-02T13:45:26;101470.84;;;10.51
76583;BMP280;65462;52.148;7.940;2023-03-02T13:47:52;101462.09;;;10.64
76583;BMP280;65462;52.148;7.940;2023-03-02T13:50:23;101466.09;;;10.75
76583;BMP280;65462;52.148;7.940;2023-03-02T13:52:49;101468.84;;;10.84
76583;BMP280;65462;52.148;7.940;2023-03-02T13:55:16;101467.25;;;10.83
76583;BMP280;65462;52.148;7.940;2023-03-02T13:57:43;101475.47;;;10.81
76583;BMP280;65462;52.148;7.940;2023-03-02T14:00:17;101462.25;;;10.81
76583;BMP280;65462;52.148;7.940;2023-03-02T14:02:44;101460.69;;;10.80
76583;BMP280;65462;52.148;7.940;2023-03-02T14:05:21;101454.72;;;10.75
76583;BMP280;65462;52.148;7.940;2023-03-02T14:07:48;101454.03;;;10.69
76583;BMP280;65462;52.148;7.940;2023-03-02T14:10:16;101455.53;;;10.75
76583;BMP280;65462;52.148;7.940;2023-03-02T14:12:46;101458.06;;;10.80
76583;BMP280;65462;52.148;7.940;2023-03-02T14:15:14;101452.03;;;10.88
76583;BMP280;65462;52.148;7.940;2023-03-02T14:17:40;101459.19;;;10.88
76583;BMP280;65462;52.148;7.940;2023-03-02T14:20:10;101441.47;;;10.88
76583;BMP280;65462;52.148;7.940;2023-03-02T14:22:36;101434.59;;;10.87
76583;BMP280;65462;52.148;7.940;2023-03-02T14:25:01;101440.50;;;10.84
76583;BMP280;65462;52.148;7.940;2023-03-02T14:27:28;101440.03;;;10.82
76583;BMP280;65462;52.148;7.940;2023-03-02T14:29:54;101427.41;;;10.79
76583;BMP280;65462;52.148;7.940;2023-03-02T14:32:20;101432.41;;;10.81
76583;BMP280;65462;52.148;7.940;2023-03-02T14:34:45;101432.41;;;10.81
76583;BMP280;65462;52.148;7.940;2023-03-02T14:37:15;101435.94;;;10.76
76583;BMP280;65462;52.148;7.940;2023-03-02T14:39:47;101426.75;;;10.74
76583;BMP280;65462;52.148;7.940;2023-03-02T14:42:17;101421.47;;;10.74
76583;BMP280;65462;52.148;7.940;2023-03-02T14:44:44;101434.16;;;10.72
76583;BMP280;65462;52.148;7.940;2023-03-02T14:47:10;101420.28;;;10.66
76583;BMP280;65462;52.148;7.940;2023-03-02T14:49:37;101416.00;;;10.57
76583;BMP280;65462;52.148;7.940;2023-03-02T14:52:25;101416.53;;;10.45
76583;BMP280;65462;52.148;7.940;2023-03-02T14:54:57;101421.25;;;10.35
76583;BMP280;65462;52.148;7.940;2023-03-02T14:57:26;101416.03;;;10.29
76583;BMP280;65462;52.148;7.940;2023-03-02T14:59:52;101419.22;;;10.18
76583;BMP280;65462;52.148;7.940;2023-03-02T15:02:21;101425.34;;;10.13